createdAt,value
2022-08-26T00:02:11.247Z,100511.19
2022-08-26T00:04:38.771Z,100508.19
2022-08-26T00:07:06.194Z,100513.84
2022-08-26T00:09:38.889Z,100510.59
2022-08-26T00:12:09.342Z,100513.81
2022-08-26T00:14:40.140Z,100517.66
2022-08-26T00:17:09.846Z,100520.13
2022-08-26T00:19:37.905Z,100518.75
2022-08-26T00:22:05.336Z,100511.94
2022-08-26T00:24:32.895Z,100519.41
2022-08-26T00:27:00.522Z,100515.00
2022-08-26T00:29:28.546Z,100502.72
2022-08-26T00:31:59.501Z,100508.84
2022-08-26T00:34:27.059Z,100509.03
2022-08-26T00:36:54.595Z,100512.69
2022-08-26T00:39:22.273Z,100509.91
2022-08-26T00:41:50.647Z,100514.78
2022-08-26T00:44:19.677Z,100518.78
2022-08-26T00:46:51.673Z,100509.22
2022-08-26T00:49:29.604Z,100500.69
2022-08-26T00:52:01.107Z,100501.72
2022-08-26T00:54:33.335Z,100494.63
2022-08-26T00:57:04.901Z,100489.22
2022-08-26T00:59:36.426Z,100494.22
2022-08-26T01:02:06.822Z,100487.78
2022-08-26T01:04:55.867Z,100497.41
2022-08-26T01:07:31.309Z,100488.84
2022-08-26T01:10:06.645Z,100487.88
2022-08-26T01:12:36.508Z,100489.66
2022-08-26T01:15:10.235Z,100494.75
2022-08-26T01:17:42.133Z,100493.81
2022-08-26T01:20:23.986Z,100495.34
2022-08-26T01:22:57.722Z,100486.69
2022-08-26T01:25:30.157Z,100484.53
2022-08-26T01:28:02.425Z,100481.06
2022-08-26T01:30:31.439Z,100472.44
2022-08-26T01:33:03.197Z,100475.31
2022-08-26T01:35:30.886Z,100473.88
2022-08-26T01:38:00.717Z,100464.97
2022-08-26T01:40:35.792Z,100467.06
2022-08-26T01:43:07.733Z,100471.47
2022-08-26T01:45:40.447Z,100462.16
2022-08-26T01:48:12.344Z,100476.53
2022-08-26T01:50:42.849Z,100468.59
2022-08-26T01:53:15.081Z,100464.16
2022-08-26T01:55:46.612Z,100468.41
2022-08-26T01:58:23.666Z,100472.31
2022-08-26T02:00:52.092Z,100470.59
2022-08-26T02:03:22.721Z,100473.25
2022-08-26T02:05:57.579Z,100472.31
2022-08-26T02:08:35.953Z,100472.09
2022-08-26T02:11:03.930Z,100466.16
2022-08-26T02:13:34.019Z,100463.03
2022-08-26T02:16:03.952Z,100457.72
2022-08-26T02:18:35.452Z,100463.81
2022-08-26T02:21:06.737Z,100465.56
2022-08-26T02:23:34.358Z,100464.44
2022-08-26T02:26:12.028Z,100460.56
2022-08-26T02:29:01.823Z,100468.50
2022-08-26T02:31:29.598Z,100466.41
2022-08-26T02:34:13.293Z,100461.88
2022-08-26T02:36:42.743Z,100463.06
2022-08-26T02:39:10.238Z,100465.13
2022-08-26T02:41:44.914Z,100460.63
2022-08-26T02:44:13.233Z,100456.59
2022-08-26T02:46:46.764Z,100455.25
2022-08-26T02:49:17.162Z,100448.78
2022-08-26T02:51:49.563Z,100451.50
2022-08-26T02:54:21.459Z,100442.53
2022-08-26T02:56:48.961Z,100441.69
2022-08-26T02:59:16.345Z,100436.97
2022-08-26T03:01:45.282Z,100435.16
2022-08-26T03:04:13.384Z,100443.75
2022-08-26T03:06:42.654Z,100437.06
2022-08-26T03:09:18.639Z,100438.34
2022-08-26T03:11:47.212Z,100429.53
2022-08-26T03:14:15.226Z,100428.66
2022-08-26T03:16:43.352Z,100432.41
2022-08-26T03:19:11.497Z,100434.06
2022-08-26T03:21:39.387Z,100427.63
2022-08-26T03:24:09.818Z,100432.03
2022-08-26T03:26:37.476Z,100426.66
2022-08-26T03:29:25.177Z,100425.00
2022-08-26T03:31:53.609Z,100430.06
2022-08-26T03:34:21.608Z,100429.16
2022-08-26T03:36:50.231Z,100424.50
2022-08-26T03:39:17.799Z,100419.72
2022-08-26T03:41:45.362Z,100414.44
2022-08-26T03:44:14.492Z,100423.44
2022-08-26T03:46:42.087Z,100418.91
2022-08-26T03:49:11.633Z,100431.19
2022-08-26T03:51:39.409Z,100427.44
2022-08-26T03:54:10.645Z,100427.09
2022-08-26T03:56:38.581Z,100419.94
2022-08-26T03:59:07.869Z,100420.88
2022-08-26T04:01:36.187Z,100429.16
2022-08-26T04:04:04.091Z,100427.38
2022-08-26T04:06:38.918Z,100424.53
2022-08-26T04:09:10.157Z,100418.13
2022-08-26T04:11:39.685Z,100421.38
2022-08-26T04:14:13.551Z,100422.28
2022-08-26T04:16:42.646Z,100422.63
2022-08-26T04:19:14.870Z,100422.28
2022-08-26T04:21:42.932Z,100426.03
2022-08-26T04:24:12.962Z,100427.47
2022-08-26T04:26:43.644Z,100422.59
2022-08-26T04:29:21.434Z,100417.22
2022-08-26T04:31:49.377Z,100415.00
2022-08-26T04:34:17.923Z,100414.81
2022-08-26T04:36:45.343Z,100416.47
2022-08-26T04:39:19.716Z,100418.09
2022-08-26T04:41:50.273Z,100420.09
2022-08-26T04:44:18.743Z,100418.47
2022-08-26T04:46:46.263Z,100424.09
2022-08-26T04:49:14.284Z,100426.28
2022-08-26T04:51:41.801Z,100423.16
2022-08-26T04:54:11.699Z,100419.31
2022-08-26T04:56:41.512Z,100416.06
2022-08-26T04:59:17.102Z,100417.19
2022-08-26T05:01:51.616Z,100422.81
2022-08-26T05:04:20.661Z,100420.31
2022-08-26T05:06:50.666Z,100424.38
2022-08-26T05:09:20.281Z,100422.44
2022-08-26T05:11:52.154Z,100413.94
2022-08-26T05:14:23.209Z,100420.66
2022-08-26T05:16:51.717Z,100420.03
2022-08-26T05:19:19.564Z,100417.34
2022-08-26T05:21:48.563Z,100424.78
2022-08-26T05:24:17.144Z,100432.19
2022-08-26T05:26:46.477Z,100427.13
2022-08-26T05:29:14.172Z,100439.06
2022-08-26T05:31:41.937Z,100444.63
2022-08-26T05:34:11.959Z,100441.16
2022-08-26T05:36:40.188Z,100435.22
2022-08-26T05:39:08.178Z,100435.00
2022-08-26T05:41:41.757Z,100441.25
2022-08-26T05:44:15.237Z,100452.28
2022-08-26T05:46:44.899Z,100440.97
2022-08-26T05:49:15.858Z,100447.38
2022-08-26T05:51:47.929Z,100449.75
2022-08-26T05:54:21.780Z,100440.81
2022-08-26T05:56:51.372Z,100444.16
2022-08-26T05:59:23.895Z,100439.88
2022-08-26T06:01:53.419Z,100451.06
2022-08-26T06:04:22.032Z,100445.06
2022-08-26T06:06:52.128Z,100453.28
2022-08-26T06:09:19.717Z,100458.63
2022-08-26T06:11:47.331Z,100463.84
2022-08-26T06:14:15.453Z,100465.25
2022-08-26T06:16:45.058Z,100460.38
2022-08-26T06:19:15.130Z,100472.44
2022-08-26T06:21:46.366Z,100463.88
2022-08-26T06:24:33.463Z,100470.09
2022-08-26T06:27:04.757Z,100472.25
2022-08-26T06:29:34.772Z,100477.41
2022-08-26T06:32:04.702Z,100485.78
2022-08-26T06:34:32.886Z,100475.53
2022-08-26T06:37:03.283Z,100482.38
2022-08-26T06:39:31.704Z,100479.09
2022-08-26T06:42:02.539Z,100469.25
2022-08-26T06:45:38.968Z,100486.06
2022-08-26T06:52:51.269Z,100478.59
2022-08-26T07:01:02.604Z,100493.22
2022-08-26T07:04:47.856Z,100475.75
2022-08-26T07:07:54.984Z,100489.88
2022-08-26T07:24:20.750Z,100497.38
2022-08-26T07:26:44.706Z,100500.00
2022-08-26T07:29:33.794Z,100491.69
2022-08-26T07:32:50.261Z,100505.69
2022-08-26T07:42:55.449Z,100509.44
2022-08-26T07:46:27.227Z,100510.94
2022-08-26T07:49:45.185Z,100511.06
2022-08-26T07:52:28.749Z,100508.22
2022-08-26T07:56:07.466Z,100512.06
2022-08-26T07:58:36.512Z,100507.25
2022-08-26T08:01:05.230Z,100505.19
2022-08-26T08:09:17.068Z,100513.09
2022-08-26T08:11:49.588Z,100506.09
2022-08-26T08:23:28.348Z,100498.50
2022-08-26T08:26:14.095Z,100507.06
2022-08-26T08:28:47.968Z,100505.88
2022-08-26T08:34:18.156Z,100505.22
2022-08-26T08:36:54.944Z,100495.91
2022-08-26T08:40:13.506Z,100505.09
2022-08-26T08:43:12.906Z,100503.56
2022-08-26T08:45:52.920Z,100521.28
2022-08-26T08:49:32.349Z,100513.47
2022-08-26T08:52:22.376Z,100497.19
2022-08-26T08:54:56.569Z,100502.31
2022-08-26T08:57:56.176Z,100511.63
2022-08-26T09:00:42.739Z,100498.25
2022-08-26T09:03:29.421Z,100498.16
2022-08-26T09:06:17.007Z,100485.59
2022-08-26T09:08:50.693Z,100494.09
2022-08-26T09:11:29.143Z,100487.16
2022-08-26T09:14:00.369Z,100484.56
2022-08-26T09:16:55.185Z,100485.91
2022-08-26T09:23:43.489Z,100490.25
2022-08-26T09:26:42.636Z,100497.53
2022-08-26T09:29:26.381Z,100480.13
2022-08-26T09:32:24.459Z,100483.16
2022-08-26T09:35:02.582Z,100480.72
2022-08-26T09:41:02.393Z,100473.06
2022-08-26T09:43:33.009Z,100475.97
2022-08-26T09:50:31.910Z,100473.25
2022-08-26T09:53:28.553Z,100468.38
2022-08-26T09:56:11.636Z,100459.97
2022-08-26T09:58:42.239Z,100449.72
2022-08-26T10:01:36.460Z,100447.88
2022-08-26T10:04:16.579Z,100445.97
2022-08-26T10:06:59.328Z,100447.44
2022-08-26T10:09:28.937Z,100441.72
2022-08-26T10:12:08.506Z,100440.78
2022-08-26T10:17:38.424Z,100432.53
2022-08-26T10:20:22.581Z,100430.34
2022-08-26T10:23:47.330Z,100432.25
2022-08-26T10:26:33.683Z,100419.53
2022-08-26T10:29:07.856Z,100428.66
2022-08-26T10:31:43.275Z,100421.47
2022-08-26T10:34:12.327Z,100422.06
2022-08-26T10:37:15.527Z,100423.34
2022-08-26T10:39:57.303Z,100427.38
2022-08-26T10:42:37.808Z,100410.97
2022-08-26T10:45:25.276Z,100410.03
2022-08-26T10:48:00.233Z,100413.97
2022-08-26T10:54:39.601Z,100411.09
2022-08-26T10:57:22.920Z,100415.03
2022-08-26T11:00:27.570Z,100399.63
2022-08-26T11:03:22.960Z,100391.28
2022-08-26T11:06:20.192Z,100395.25
2022-08-26T11:08:56.113Z,100388.31
2022-08-26T11:11:42.077Z,100395.72
2022-08-26T11:14:29.020Z,100389.03
2022-08-26T11:17:01.166Z,100379.19
2022-08-26T11:20:00.332Z,100388.72
2022-08-26T11:22:39.766Z,100381.50
2022-08-26T11:25:18.844Z,100388.31
2022-08-26T11:27:50.841Z,100382.72
2022-08-26T11:30:57.736Z,100382.53
2022-08-26T11:34:01.381Z,100382.94
2022-08-26T11:37:12.516Z,100375.56
2022-08-26T11:39:57.043Z,100370.91
2022-08-26T11:42:31.216Z,100372.03
2022-08-26T11:45:02.491Z,100368.25
2022-08-26T11:47:33.236Z,100362.59
2022-08-26T11:50:10.084Z,100364.16
2022-08-26T11:52:39.854Z,100364.19
2022-08-26T11:55:14.556Z,100349.16
2022-08-26T11:58:51.286Z,100338.78
2022-08-26T12:01:40.145Z,100344.53
2022-08-26T12:05:00.525Z,100350.16
2022-08-26T12:07:36.109Z,100344.53
2022-08-26T12:10:06.934Z,100338.06
2022-08-26T12:12:42.600Z,100325.31
2022-08-26T12:15:37.314Z,100328.16
2022-08-26T12:18:29.501Z,100320.66
2022-08-26T12:21:42.941Z,100320.47
2022-08-26T12:24:10.640Z,100314.63
2022-08-26T12:26:41.549Z,100318.53
2022-08-26T12:29:26.945Z,100308.22
2022-08-26T12:32:13.669Z,100309.75
2022-08-26T12:35:12.118Z,100311.78
2022-08-26T12:37:51.255Z,100295.53
2022-08-26T12:40:50.572Z,100291.31
2022-08-26T12:43:56.900Z,100286.13
2022-08-26T12:46:29.303Z,100283.31
2022-08-26T12:49:03.484Z,100281.00
2022-08-26T12:51:42.007Z,100284.94
2022-08-26T12:54:41.239Z,100282.41
2022-08-26T12:57:13.468Z,100272.03
2022-08-26T12:59:41.346Z,100260.91
2022-08-26T13:02:11.598Z,100264.66
2022-08-26T13:04:43.206Z,100265.34
2022-08-26T13:07:24.383Z,100259.63
2022-08-26T13:09:57.467Z,100254.75
2022-08-26T13:12:33.731Z,100252.34
2022-08-26T13:15:06.102Z,100252.22
2022-08-26T13:17:36.124Z,100247.13
2022-08-26T13:20:04.811Z,100233.16
2022-08-26T13:22:32.868Z,100229.91
2022-08-26T13:25:00.627Z,100234.50
2022-08-26T13:27:33.224Z,100225.34
2022-08-26T13:30:05.059Z,100225.97
2022-08-26T13:32:37.751Z,100229.22
2022-08-26T13:35:08.648Z,100222.63
2022-08-26T13:37:45.374Z,100229.72
2022-08-26T13:40:14.481Z,100224.75
2022-08-26T13:42:49.825Z,100228.00
2022-08-26T13:45:22.499Z,100226.81
2022-08-26T13:47:50.485Z,100210.72
2022-08-26T13:50:20.484Z,100209.97
2022-08-26T13:52:48.243Z,100204.09
2022-08-26T13:55:16.041Z,100204.13
2022-08-26T13:57:43.876Z,100216.69
2022-08-26T14:00:12.307Z,100211.03
2022-08-26T14:02:46.021Z,100205.72
2022-08-26T14:05:16.235Z,100198.75
2022-08-26T14:07:47.953Z,100199.28
2022-08-26T14:10:17.809Z,100211.22
2022-08-26T14:12:47.884Z,100192.47
2022-08-26T14:15:18.051Z,100191.50
2022-08-26T14:17:49.572Z,100191.16
2022-08-26T14:20:31.724Z,100179.19
2022-08-26T14:23:17.710Z,100192.13
2022-08-26T14:25:52.926Z,100189.66
2022-08-26T14:28:23.320Z,100189.56
2022-08-26T14:30:55.403Z,100189.00
2022-08-26T14:33:32.843Z,100188.50
2022-08-26T14:36:19.408Z,100196.44
2022-08-26T14:38:50.960Z,100182.16
2022-08-26T14:41:20.130Z,100180.31
2022-08-26T14:44:02.006Z,100177.84
2022-08-26T14:46:33.514Z,100188.75
2022-08-26T14:49:05.204Z,100185.63
2022-08-26T14:52:19.969Z,100176.97
2022-08-26T14:54:47.635Z,100173.22
2022-08-26T14:57:25.713Z,100168.63
2022-08-26T14:59:53.409Z,100173.56
2022-08-26T15:02:56.498Z,100167.94
2022-08-26T15:05:27.415Z,100160.16
2022-08-26T15:07:57.534Z,100161.97
2022-08-26T15:10:44.951Z,100158.56
2022-08-26T15:13:21.543Z,100159.00
2022-08-26T15:15:53.366Z,100158.63
2022-08-26T15:18:36.953Z,100161.25
2022-08-26T15:21:28.682Z,100158.41
2022-08-26T15:23:59.921Z,100158.06
2022-08-26T15:26:29.938Z,100162.88
2022-08-26T15:29:36.291Z,100167.38
2022-08-26T15:32:05.168Z,100172.50
2022-08-26T15:34:32.945Z,100159.53
2022-08-26T15:37:03.098Z,100165.59
2022-08-26T15:39:54.579Z,100175.84
2022-08-26T15:42:57.508Z,100161.34
2022-08-26T15:46:20.638Z,100160.38
2022-08-26T15:49:40.899Z,100173.66
2022-08-26T15:52:10.719Z,100170.72
2022-08-26T15:55:54.447Z,100170.66
2022-08-26T15:58:24.319Z,100166.25
2022-08-26T16:00:56.834Z,100159.78
2022-08-26T16:03:24.767Z,100161.09
2022-08-26T16:05:56.636Z,100167.69
2022-08-26T16:08:24.383Z,100159.00
2022-08-26T16:10:53.165Z,100165.94
2022-08-26T16:13:23.944Z,100171.13
2022-08-26T16:15:54.132Z,100162.34
2022-08-26T16:18:24.382Z,100164.03
2022-08-26T16:21:06.573Z,100163.47
2022-08-26T16:23:45.397Z,100165.16
2022-08-26T16:26:19.620Z,100165.88
2022-08-26T16:28:51.974Z,100163.47
2022-08-26T16:31:21.400Z,100158.69
2022-08-26T16:33:51.971Z,100159.53
2022-08-26T16:36:25.861Z,100168.53
2022-08-26T16:38:58.259Z,100164.66
2022-08-26T16:41:29.156Z,100171.06
2022-08-26T16:44:53.973Z,100167.81
2022-08-26T16:47:23.240Z,100157.50
2022-08-26T16:49:51.440Z,100157.09
2022-08-26T16:52:21.521Z,100161.81
2022-08-26T16:54:53.247Z,100167.66
2022-08-26T16:57:28.202Z,100167.63
2022-08-26T16:59:56.029Z,100156.88
2022-08-26T17:02:29.328Z,100168.44
2022-08-26T17:04:57.217Z,100165.16
2022-08-26T17:07:27.295Z,100157.44
2022-08-26T17:09:55.894Z,100157.56
2022-08-26T17:12:28.453Z,100162.69
2022-08-26T17:14:57.492Z,100147.41
2022-08-26T17:17:29.768Z,100148.56
2022-08-26T17:19:57.782Z,100159.94
2022-08-26T17:22:31.515Z,100167.69
2022-08-26T17:25:34.167Z,100155.00
2022-08-26T17:28:01.998Z,100163.69
2022-08-26T17:30:30.896Z,100170.28
2022-08-26T17:33:10.796Z,100157.44
2022-08-26T17:35:39.039Z,100161.44
2022-08-26T17:38:07.281Z,100164.63
2022-08-26T17:40:39.822Z,100166.06
2022-08-26T17:43:12.508Z,100159.66
2022-08-26T17:45:40.735Z,100168.50
2022-08-26T17:48:10.811Z,100167.09
2022-08-26T17:50:41.274Z,100158.38
2022-08-26T17:53:12.732Z,100152.59
2022-08-26T17:55:50.238Z,100156.56
2022-08-26T17:58:20.398Z,100148.69
2022-08-26T18:01:29.895Z,100151.38
2022-08-26T18:04:00.423Z,100149.69
2022-08-26T18:07:23.037Z,100150.19
2022-08-26T18:09:50.947Z,100153.41
2022-08-26T18:12:18.577Z,100152.88
2022-08-26T18:15:27.518Z,100142.13
2022-08-26T18:17:58.369Z,100140.59
2022-08-26T18:20:26.136Z,100148.72
2022-08-26T18:22:54.443Z,100149.69
2022-08-26T18:25:22.346Z,100160.09
2022-08-26T18:27:52.228Z,100160.03
2022-08-26T18:30:21.581Z,100159.03
2022-08-26T18:32:50.207Z,100165.19
2022-08-26T18:35:25.489Z,100160.88
2022-08-26T18:39:01.488Z,100165.06
2022-08-26T18:41:32.516Z,100159.94
2022-08-26T18:44:00.512Z,100169.91
2022-08-26T18:46:36.513Z,100161.69
2022-08-26T18:49:22.609Z,100164.19
2022-08-26T18:51:55.407Z,100162.91
2022-08-26T18:54:26.089Z,100167.88
2022-08-26T18:57:28.445Z,100167.03
2022-08-26T18:59:56.335Z,100159.72
2022-08-26T19:02:24.598Z,100158.97
2022-08-26T19:05:02.241Z,100168.22
2022-08-26T19:07:30.336Z,100167.94
2022-08-26T19:09:58.027Z,100183.41
2022-08-26T19:16:18.704Z,100164.56
2022-08-26T19:18:47.453Z,100168.97
2022-08-26T19:21:40.636Z,100178.84
2022-08-26T19:24:15.383Z,100182.66
2022-08-26T19:26:45.705Z,100172.47
2022-08-26T19:29:15.289Z,100170.75
2022-08-26T19:31:47.932Z,100171.94
2022-08-26T19:34:20.951Z,100170.78
2022-08-26T19:36:49.557Z,100173.88
2022-08-26T19:39:17.586Z,100171.09
2022-08-26T19:42:52.236Z,100174.69
2022-08-26T19:45:25.769Z,100173.16
2022-08-26T19:47:54.015Z,100171.69
2022-08-26T19:50:22.584Z,100179.13
2022-08-26T19:52:50.229Z,100173.94
2022-08-26T19:55:19.250Z,100175.28
2022-08-26T19:57:47.055Z,100176.31
2022-08-26T20:00:30.590Z,100178.38
2022-08-26T20:03:29.194Z,100179.66
2022-08-26T20:05:58.205Z,100170.91
2022-08-26T20:08:26.043Z,100175.41
2022-08-26T20:10:55.296Z,100169.41
2022-08-26T20:13:28.469Z,100174.66
2022-08-26T20:16:41.053Z,100182.09
2022-08-26T20:19:28.716Z,100180.59
2022-08-26T20:21:56.323Z,100176.91
2022-08-26T20:24:26.445Z,100182.03
2022-08-26T20:26:58.663Z,100177.50
2022-08-26T20:30:41.536Z,100188.44
2022-08-26T20:34:10.380Z,100192.50
2022-08-26T20:36:39.698Z,100181.22
2022-08-26T20:39:11.847Z,100191.66
2022-08-26T20:41:44.534Z,100182.91
2022-08-26T20:44:13.937Z,100181.34
2022-08-26T20:46:41.755Z,100179.75
2022-08-26T20:49:09.797Z,100186.34
2022-08-26T20:51:38.015Z,100176.44
2022-08-26T20:54:07.511Z,100183.78
2022-08-26T20:56:35.935Z,100186.84
2022-08-26T20:59:08.093Z,100196.78
2022-08-26T21:01:42.175Z,100190.88
2022-08-26T21:04:17.717Z,100202.59
2022-08-26T21:06:48.993Z,100194.22
2022-08-26T21:09:23.014Z,100203.91
2022-08-26T21:11:57.133Z,100188.38
2022-08-26T21:15:13.684Z,100192.09
2022-08-26T21:17:44.310Z,100196.88
2022-08-26T21:20:12.138Z,100197.97
2022-08-26T21:22:39.798Z,100200.50
2022-08-26T21:25:10.076Z,100200.28
2022-08-26T21:27:38.518Z,100196.94
2022-08-26T21:30:06.775Z,100195.31
2022-08-26T21:32:34.531Z,100199.34
2022-08-26T21:35:02.499Z,100197.13
2022-08-26T21:37:30.168Z,100202.00
2022-08-26T21:39:59.319Z,100197.69
2022-08-26T21:42:27.036Z,100199.19
2022-08-26T21:44:57.531Z,100196.28
2022-08-26T21:47:25.238Z,100198.97
2022-08-26T21:50:01.610Z,100196.19
2022-08-26T21:52:29.545Z,100185.50
2022-08-26T21:55:01.574Z,100190.34
2022-08-26T21:57:31.714Z,100190.16
2022-08-26T21:59:59.526Z,100190.38
2022-08-26T22:02:29.593Z,100192.31
2022-08-26T22:04:57.466Z,100190.84
2022-08-26T22:07:25.085Z,100181.41
2022-08-26T22:09:52.900Z,100183.78
2022-08-26T22:12:20.601Z,100182.13
2022-08-26T22:14:49.426Z,100176.03
2022-08-26T22:17:47.819Z,100182.66
2022-08-26T22:20:16.528Z,100175.50
2022-08-26T22:22:45.246Z,100175.75
2022-08-26T22:25:13.060Z,100178.91
2022-08-26T22:27:43.016Z,100169.47
2022-08-26T22:30:11.708Z,100176.22
2022-08-26T22:32:40.462Z,100185.06
2022-08-26T22:35:28.971Z,100181.38
2022-08-26T22:37:57.263Z,100180.81
2022-08-26T22:41:09.909Z,100177.81
2022-08-26T22:43:38.712Z,100168.03
2022-08-26T22:46:09.646Z,100173.53
2022-08-26T22:48:40.495Z,100174.25
2022-08-26T22:51:19.387Z,100179.53
2022-08-26T22:53:47.642Z,100191.47
2022-08-26T22:57:26.463Z,100210.47
2022-08-26T22:59:58.601Z,100194.13
2022-08-26T23:02:29.991Z,100201.63
2022-08-26T23:04:57.741Z,100193.47
2022-08-26T23:07:25.460Z,100196.78
2022-08-26T23:09:58.500Z,100195.19
2022-08-26T23:12:27.804Z,100189.13
2022-08-26T23:14:59.089Z,100186.78
2022-08-26T23:17:26.789Z,100182.25
2022-08-26T23:19:55.363Z,100188.66
2022-08-26T23:22:23.040Z,100186.06
2022-08-26T23:24:51.024Z,100187.13
2022-08-26T23:28:03.972Z,100187.00
2022-08-26T23:30:33.898Z,100184.31
2022-08-26T23:33:01.604Z,100180.88
2022-08-26T23:35:30.066Z,100186.56
2022-08-26T23:38:00.968Z,100181.94
2022-08-26T23:40:34.782Z,100181.19
2022-08-26T23:43:08.001Z,100186.75
2022-08-26T23:45:36.011Z,100187.13
2022-08-26T23:48:04.618Z,100186.41
2022-08-26T23:50:51.047Z,100184.16
2022-08-26T23:53:21.404Z,100182.97
2022-08-26T23:55:53.154Z,100189.34
2022-08-26T23:58:21.582Z,100197.63
